createdAt,value
2023-05-05T00:00:22.029Z,100777.47
2023-05-05T00:02:50.591Z,100787.06
2023-05-05T00:05:19.321Z,100780.91
2023-05-05T00:07:47.926Z,100785.19
2023-05-05T00:10:16.824Z,100776.25
2023-05-05T00:12:45.461Z,100780.53
2023-05-05T00:15:14.218Z,100776.06
2023-05-05T00:17:43.048Z,100775.22
2023-05-05T00:20:11.320Z,100780.56
2023-05-05T00:22:39.106Z,100777.78
2023-05-05T00:25:07.473Z,100772.53
2023-05-05T00:27:36.503Z,100763.84
2023-05-05T00:30:06.224Z,100774.47
2023-05-05T00:32:35.125Z,100766.00
2023-05-05T00:35:03.946Z,100775.75
2023-05-05T00:37:33.119Z,100775.75
2023-05-05T00:40:01.898Z,100782.72
2023-05-05T00:42:45.913Z,100769.63
2023-05-05T00:45:15.821Z,100772.19
2023-05-05T00:47:57.300Z,100765.47
2023-05-05T00:50:29.461Z,100763.72
2023-05-05T00:53:01.688Z,100761.09
2023-05-05T00:55:30.898Z,100757.56
2023-05-05T00:58:01.547Z,100756.81
2023-05-05T01:00:30.506Z,100756.78
2023-05-05T01:02:59.837Z,100751.47
2023-05-05T01:05:38.062Z,100757.53
2023-05-05T01:08:14.875Z,100750.47
2023-05-05T01:10:52.509Z,100754.81
2023-05-05T01:13:42.919Z,100754.72
2023-05-05T01:16:19.306Z,100754.75
2023-05-05T01:19:37.420Z,100743.56
2023-05-05T01:22:09.269Z,100753.19
2023-05-05T01:24:56.021Z,100751.38
2023-05-05T01:27:38.459Z,100746.97
2023-05-05T01:30:44.458Z,100752.19
2023-05-05T01:33:19.972Z,100749.63
2023-05-05T01:35:55.526Z,100750.59
2023-05-05T01:38:36.337Z,100747.06
2023-05-05T01:41:30.409Z,100744.47
2023-05-05T01:44:03.432Z,100738.25
2023-05-05T01:46:34.429Z,100746.25
2023-05-05T01:49:05.918Z,100754.25
2023-05-05T01:51:36.288Z,100741.13
2023-05-05T01:54:08.268Z,100751.66
2023-05-05T01:56:40.221Z,100748.19
2023-05-05T01:59:10.399Z,100742.94
2023-05-05T02:01:44.918Z,100746.44
2023-05-05T02:04:15.131Z,100739.47
2023-05-05T02:06:46.170Z,100743.81
2023-05-05T02:09:16.211Z,100742.09
2023-05-05T02:11:44.179Z,100736.84
2023-05-05T02:14:12.932Z,100734.22
2023-05-05T02:16:42.900Z,100736.81
2023-05-05T02:19:14.485Z,100732.47
2023-05-05T02:21:43.244Z,100744.72
2023-05-05T02:24:12.222Z,100735.97
2023-05-05T02:26:44.070Z,100734.22
2023-05-05T02:29:19.084Z,100730.69
2023-05-05T02:31:55.606Z,100726.34
2023-05-05T02:34:26.803Z,100732.47
2023-05-05T02:37:00.224Z,100716.75
2023-05-05T02:39:37.247Z,100733.31
2023-05-05T02:42:07.889Z,100728.97
2023-05-05T02:44:42.184Z,100728.97
2023-05-05T02:47:10.964Z,100722.88
2023-05-05T02:49:39.579Z,100729.84
2023-05-05T02:52:07.445Z,100731.56
2023-05-05T02:54:36.505Z,100731.56
2023-05-05T02:57:05.181Z,100735.06
2023-05-05T03:00:06.450Z,100732.47
2023-05-05T03:02:44.957Z,100731.59
2023-05-05T03:05:19.866Z,100739.47
2023-05-05T03:08:09.962Z,100739.47
2023-05-05T03:10:56.794Z,100732.47
2023-05-05T03:13:28.569Z,100740.34
2023-05-05T03:15:59.085Z,100738.56
2023-05-05T03:18:29.202Z,100748.13
2023-05-05T03:20:59.263Z,100742.84
2023-05-05T03:23:27.241Z,100740.22
2023-05-05T03:25:55.930Z,100739.34
2023-05-05T03:28:24.596Z,100742.81
2023-05-05T03:30:54.400Z,100736.72
2023-05-05T03:33:23.081Z,100735.97
2023-05-05T03:35:50.953Z,100742.97
2023-05-05T03:38:19.629Z,100742.09
2023-05-05T03:40:48.449Z,100737.72
2023-05-05T03:43:17.102Z,100735.06
2023-05-05T03:45:45.607Z,100737.72
2023-05-05T03:48:14.479Z,100742.94
2023-05-05T03:50:45.697Z,100743.81
2023-05-05T03:53:14.354Z,100748.22
2023-05-05T03:55:42.173Z,100753.44
2023-05-05T03:58:11.234Z,100747.31
2023-05-05T04:00:39.868Z,100752.56
2023-05-05T04:03:08.658Z,100749.94
2023-05-05T04:05:37.232Z,100758.66
2023-05-05T04:08:05.960Z,100749.94
2023-05-05T04:10:34.890Z,100756.94
2023-05-05T04:13:04.210Z,100767.44
2023-05-05T04:15:32.930Z,100764.81
2023-05-05T04:18:01.529Z,100770.94
2023-05-05T04:20:29.274Z,100777.91
2023-05-05T04:22:57.987Z,100767.41
2023-05-05T04:25:27.225Z,100783.16
2023-05-05T04:27:56.108Z,100776.13
2023-05-05T04:30:23.048Z,100773.47
2023-05-05T04:32:51.829Z,100779.59
2023-05-05T04:35:20.995Z,100782.22
2023-05-05T04:37:49.904Z,100777.00
2023-05-05T04:40:18.007Z,100781.38
2023-05-05T04:42:46.179Z,100792.75
2023-05-05T04:45:13.974Z,100784.88
2023-05-05T04:47:42.642Z,100785.78
2023-05-05T04:50:11.743Z,100786.63
2023-05-05T04:52:40.645Z,100792.78
2023-05-05T04:55:10.827Z,100797.94
2023-05-05T04:57:39.492Z,100797.09
2023-05-05T05:00:10.060Z,100793.66
2023-05-05T05:02:38.396Z,100792.78
2023-05-05T05:05:07.968Z,100786.63
2023-05-05T05:07:35.870Z,100792.69
2023-05-05T05:10:03.798Z,100803.19
2023-05-05T05:12:32.455Z,100796.19
2023-05-05T05:15:00.291Z,100804.00
2023-05-05T05:17:30.577Z,100805.69
2023-05-05T05:20:01.795Z,100803.09
2023-05-05T05:22:31.017Z,100810.13
2023-05-05T05:24:59.766Z,100795.22
2023-05-05T05:27:28.341Z,100805.59
2023-05-05T05:29:56.914Z,100802.91
2023-05-05T05:32:25.498Z,100795.75
2023-05-05T05:34:54.068Z,100801.94
2023-05-05T05:37:21.903Z,100793.09
2023-05-05T05:39:53.531Z,100800.94
2023-05-05T05:42:22.206Z,100798.28
2023-05-05T05:44:50.866Z,100810.59
2023-05-05T05:47:19.699Z,100801.72
2023-05-05T05:49:47.509Z,100797.31
2023-05-05T05:52:15.257Z,100793.75
2023-05-05T05:54:43.816Z,100804.16
2023-05-05T05:57:11.661Z,100803.25
2023-05-05T05:59:40.352Z,100801.34
2023-05-05T06:02:09.789Z,100800.34
2023-05-05T06:04:38.638Z,100791.53
2023-05-05T06:07:07.591Z,100805.69
2023-05-05T06:09:35.399Z,100799.22
2023-05-05T06:12:03.924Z,100810.75
2023-05-05T06:14:32.187Z,100815.09
2023-05-05T06:17:00.808Z,100814.03
2023-05-05T06:19:29.804Z,100815.59
2023-05-05T06:21:58.619Z,100817.34
2023-05-05T06:24:27.229Z,100805.63
2023-05-05T06:26:55.820Z,100806.25
2023-05-05T06:29:24.452Z,100814.88
2023-05-05T06:31:53.208Z,100815.69
2023-05-05T06:34:21.220Z,100805.84
2023-05-05T06:36:49.886Z,100804.69
2023-05-05T06:39:17.808Z,100806.50
2023-05-05T06:41:46.534Z,100809.72
2023-05-05T06:44:15.041Z,100802.38
2023-05-05T06:46:43.921Z,100807.81
2023-05-05T06:49:14.007Z,100803.22
2023-05-05T06:51:42.825Z,100800.50
2023-05-05T06:54:11.652Z,100800.53
2023-05-05T06:56:40.280Z,100809.19
2023-05-05T06:59:08.905Z,100802.63
2023-05-05T07:01:37.561Z,100803.31
2023-05-05T07:04:06.412Z,100805.88
2023-05-05T07:06:35.245Z,100799.44
2023-05-05T07:09:04.533Z,100800.97
2023-05-05T07:11:33.054Z,100806.16
2023-05-05T07:14:00.874Z,100805.81
2023-05-05T07:16:28.753Z,100805.16
2023-05-05T07:18:56.910Z,100803.03
2023-05-05T07:21:24.829Z,100802.66
2023-05-05T07:23:53.597Z,100800.66
2023-05-05T07:26:22.277Z,100792.44
2023-05-05T07:28:52.168Z,100799.09
2023-05-05T07:31:20.151Z,100797.19
2023-05-05T07:33:48.235Z,100803.28
2023-05-05T07:36:18.259Z,100796.69
2023-05-05T07:38:46.979Z,100794.69
2023-05-05T07:41:14.767Z,100802.59
2023-05-05T07:43:44.659Z,100794.44
2023-05-05T07:46:14.041Z,100795.00
2023-05-05T07:48:42.712Z,100791.47
2023-05-05T07:51:11.512Z,100787.16
2023-05-05T07:53:39.478Z,100790.56
2023-05-05T07:56:09.070Z,100783.38
2023-05-05T07:58:37.058Z,100790.97
2023-05-05T08:01:06.674Z,100791.75
2023-05-05T08:03:34.534Z,100788.75
2023-05-05T08:06:09.636Z,100792.75
2023-05-05T08:08:38.305Z,100782.81
2023-05-05T08:11:06.977Z,100783.03
2023-05-05T08:13:35.684Z,100789.69
2023-05-05T08:16:04.541Z,100793.22
2023-05-05T08:18:33.080Z,100793.66
2023-05-05T08:21:01.770Z,100788.03
2023-05-05T08:23:30.562Z,100796.09
2023-05-05T08:25:59.245Z,100791.44
2023-05-05T08:28:27.088Z,100794.97
2023-05-05T08:30:55.949Z,100799.09
2023-05-05T08:33:23.637Z,100791.69
2023-05-05T08:35:52.183Z,100796.34
2023-05-05T08:38:21.026Z,100792.72
2023-05-05T08:40:52.120Z,100791.50
2023-05-05T08:43:22.956Z,100793.84
2023-05-05T08:45:53.908Z,100789.72
2023-05-05T08:48:27.809Z,100787.84
2023-05-05T08:51:00.341Z,100787.16
2023-05-05T08:53:45.972Z,100799.00
2023-05-05T08:56:15.536Z,100796.53
2023-05-05T08:58:46.614Z,100781.31
2023-05-05T09:01:18.463Z,100772.41
2023-05-05T09:03:47.187Z,100768.53
2023-05-05T09:06:16.119Z,100775.00
2023-05-05T09:08:44.296Z,100778.78
2023-05-05T09:11:12.892Z,100774.41
2023-05-05T09:13:42.033Z,100765.47
2023-05-05T09:16:10.801Z,100762.78
2023-05-05T09:18:39.121Z,100770.97
2023-05-05T09:21:24.976Z,100759.81
2023-05-05T09:24:09.149Z,100770.81
2023-05-05T09:26:38.850Z,100761.25
2023-05-05T09:29:06.865Z,100763.75
2023-05-05T09:31:36.435Z,100766.31
2023-05-05T09:34:16.535Z,100761.94
2023-05-05T09:36:50.177Z,100770.03
2023-05-05T09:39:20.682Z,100765.25
2023-05-05T09:41:49.245Z,100751.94
2023-05-05T09:44:34.862Z,100755.22
2023-05-05T09:47:07.225Z,100750.97
2023-05-05T09:49:40.875Z,100751.59
2023-05-05T09:52:14.848Z,100752.81
2023-05-05T09:54:44.070Z,100754.41
2023-05-05T09:57:33.540Z,100750.91
2023-05-05T10:00:04.532Z,100753.03
2023-05-05T10:02:35.482Z,100746.91
2023-05-05T10:05:16.130Z,100745.25
2023-05-05T10:07:45.996Z,100743.06
2023-05-05T10:10:17.310Z,100742.72
2023-05-05T10:12:47.844Z,100740.28
2023-05-05T10:15:16.919Z,100741.78
2023-05-05T10:20:22.874Z,100737.94
2023-05-05T10:22:53.464Z,100741.91
2023-05-05T10:25:35.276Z,100733.56
2023-05-05T10:28:08.599Z,100731.56
2023-05-05T10:30:43.573Z,100728.53
2023-05-05T10:33:49.814Z,100726.16
2023-05-05T10:36:20.534Z,100715.22
2023-05-05T10:38:49.581Z,100716.66
2023-05-05T10:41:20.739Z,100717.56
2023-05-05T10:43:49.507Z,100704.59
2023-05-05T10:46:17.952Z,100714.97
2023-05-05T10:49:05.811Z,100702.59
2023-05-05T10:51:43.728Z,100714.69
2023-05-05T10:54:21.340Z,100701.19
2023-05-05T10:56:50.040Z,100706.69
2023-05-05T10:59:36.696Z,100697.66
2023-05-05T11:02:24.305Z,100700.38
2023-05-05T11:05:15.392Z,100704.44
2023-05-05T11:07:44.647Z,100691.97
2023-05-05T11:10:14.961Z,100687.81
2023-05-05T11:12:52.295Z,100688.97
2023-05-05T11:15:30.379Z,100684.66
2023-05-05T11:18:00.255Z,100679.69
2023-05-05T11:20:37.197Z,100687.91
2023-05-05T11:23:05.875Z,100682.00
2023-05-05T11:25:37.395Z,100673.16
2023-05-05T11:28:18.955Z,100674.00
2023-05-05T11:30:56.410Z,100665.19
2023-05-05T11:33:37.250Z,100670.19
2023-05-05T11:36:08.629Z,100660.78
2023-05-05T11:38:55.963Z,100657.00
2023-05-05T11:41:33.626Z,100661.03
2023-05-05T11:44:16.377Z,100653.19
2023-05-05T11:46:50.936Z,100649.44
2023-05-05T11:49:49.678Z,100645.66
2023-05-05T11:52:17.392Z,100636.59
2023-05-05T11:54:48.147Z,100644.28
2023-05-05T11:57:18.408Z,100638.56
2023-05-05T11:59:53.315Z,100638.13
2023-05-05T12:02:22.861Z,100640.38
2023-05-05T12:04:51.034Z,100640.78
2023-05-05T12:07:20.895Z,100640.34
2023-05-05T12:09:50.128Z,100639.00
2023-05-05T12:12:18.865Z,100633.88
2023-05-05T12:14:53.126Z,100631.84
2023-05-05T12:17:22.083Z,100625.63
2023-05-05T12:19:54.642Z,100622.16
2023-05-05T12:22:26.596Z,100627.13
2023-05-05T12:25:03.380Z,100620.44
2023-05-05T12:27:31.171Z,100616.94
2023-05-05T12:30:13.248Z,100615.50
2023-05-05T12:32:40.859Z,100612.22
2023-05-05T12:35:10.050Z,100603.34
2023-05-05T12:37:39.186Z,100598.28
2023-05-05T12:40:44.200Z,100601.47
2023-05-05T12:43:35.209Z,100596.41
2023-05-05T12:46:04.722Z,100601.25
2023-05-05T12:48:33.102Z,100602.63
2023-05-05T12:51:31.429Z,100604.19
2023-05-05T12:54:11.696Z,100600.47
2023-05-05T12:56:45.816Z,100594.00
2023-05-05T12:59:22.549Z,100596.47
2023-05-05T13:01:54.363Z,100590.31
2023-05-05T13:04:27.180Z,100587.47
2023-05-05T13:07:12.971Z,100583.50
2023-05-05T13:09:41.454Z,100571.34
2023-05-05T13:12:12.126Z,100573.66
2023-05-05T13:14:41.041Z,100565.06
2023-05-05T13:17:09.504Z,100561.03
2023-05-05T13:19:42.051Z,100550.94
2023-05-05T13:22:10.226Z,100556.19
2023-05-05T13:24:49.939Z,100557.72
2023-05-05T13:27:20.540Z,100558.44
2023-05-05T13:29:48.572Z,100543.69
2023-05-05T13:32:16.300Z,100549.16
2023-05-05T13:34:44.348Z,100544.97
2023-05-05T13:37:12.028Z,100545.06
2023-05-05T13:39:39.671Z,100537.09
2023-05-05T13:42:07.612Z,100543.34
2023-05-05T13:44:35.863Z,100536.50
2023-05-05T13:47:03.826Z,100538.97
2023-05-05T13:49:32.655Z,100528.50
2023-05-05T13:52:00.221Z,100529.63
2023-05-05T13:54:28.190Z,100525.97
2023-05-05T13:56:56.013Z,100526.94
2023-05-05T13:59:23.672Z,100527.56
2023-05-05T14:01:51.475Z,100528.13
2023-05-05T14:04:19.414Z,100528.84
2023-05-05T14:06:47.110Z,100522.75
2023-05-05T14:09:14.704Z,100522.56
2023-05-05T14:11:42.711Z,100517.72
2023-05-05T14:14:10.761Z,100510.66
2023-05-05T14:16:38.487Z,100517.44
2023-05-05T14:19:06.531Z,100516.31
2023-05-05T14:21:34.439Z,100511.59
2023-05-05T14:24:05.047Z,100511.38
2023-05-05T14:26:32.906Z,100504.34
2023-05-05T14:29:00.680Z,100503.06
2023-05-05T14:31:28.755Z,100496.56
2023-05-05T14:33:59.528Z,100498.81
2023-05-05T14:36:27.043Z,100493.59
2023-05-05T14:38:54.661Z,100503.41
2023-05-05T14:41:22.773Z,100501.38
2023-05-05T14:43:50.703Z,100499.91
2023-05-05T14:46:18.948Z,100499.44
2023-05-05T14:48:47.471Z,100491.03
2023-05-05T14:51:16.083Z,100491.00
2023-05-05T14:53:44.053Z,100490.69
2023-05-05T14:56:11.855Z,100492.13
2023-05-05T14:58:39.608Z,100488.88
2023-05-05T15:01:07.391Z,100492.28
2023-05-05T15:03:35.174Z,100485.00
2023-05-05T15:06:02.729Z,100499.91
2023-05-05T15:08:30.524Z,100495.13
2023-05-05T15:10:58.143Z,100492.13
2023-05-05T15:13:26.377Z,100490.41
2023-05-05T15:15:53.983Z,100494.09
2023-05-05T15:18:21.563Z,100499.69
2023-05-05T15:20:49.254Z,100493.00
2023-05-05T15:23:17.208Z,100488.50
2023-05-05T15:25:45.542Z,100496.38
2023-05-05T15:28:14.611Z,100489.94
2023-05-05T15:30:42.256Z,100472.78
2023-05-05T15:33:11.229Z,100481.50
2023-05-05T15:35:40.075Z,100481.19
2023-05-05T15:38:07.944Z,100475.09
2023-05-05T15:40:35.580Z,100466.72
2023-05-05T15:43:03.277Z,100472.16
2023-05-05T15:45:30.905Z,100470.81
2023-05-05T15:47:58.533Z,100468.63
2023-05-05T15:50:26.216Z,100481.22
2023-05-05T15:52:57.051Z,100472.03
2023-05-05T15:55:24.808Z,100464.59
2023-05-05T15:57:53.091Z,100468.69
2023-05-05T16:00:21.157Z,100471.66
2023-05-05T16:02:49.036Z,100469.25
2023-05-05T16:05:16.675Z,100465.47
2023-05-05T16:07:44.213Z,100456.81
2023-05-05T16:10:14.382Z,100450.47
2023-05-05T16:12:41.867Z,100452.75
2023-05-05T16:15:10.516Z,100455.34
2023-05-05T16:17:40.237Z,100443.81
2023-05-05T16:20:10.530Z,100446.59
2023-05-05T16:22:38.183Z,100451.94
2023-05-05T16:25:06.550Z,100446.75
2023-05-05T16:27:34.481Z,100448.03
2023-05-05T16:30:02.407Z,100441.00
2023-05-05T16:32:30.008Z,100437.97
2023-05-05T16:34:57.762Z,100447.56
2023-05-05T16:37:25.525Z,100449.47
2023-05-05T16:39:53.115Z,100451.53
2023-05-05T16:42:21.045Z,100443.66
2023-05-05T16:44:49.051Z,100449.63
2023-05-05T16:47:16.720Z,100452.09
2023-05-05T16:49:44.513Z,100461.81
2023-05-05T16:52:12.186Z,100453.16
2023-05-05T16:54:39.972Z,100454.34
2023-05-05T16:57:07.815Z,100453.38
2023-05-05T16:59:36.185Z,100456.81
2023-05-05T17:02:04.304Z,100454.13
2023-05-05T17:04:33.791Z,100452.59
2023-05-05T17:07:01.383Z,100459.78
2023-05-05T17:09:28.816Z,100457.44
2023-05-05T17:11:56.717Z,100455.53
2023-05-05T17:14:27.404Z,100456.94
2023-05-05T17:16:55.123Z,100461.03
2023-05-05T17:19:22.698Z,100460.63
2023-05-05T17:21:50.380Z,100462.44
2023-05-05T17:24:17.915Z,100456.88
2023-05-05T17:26:45.943Z,100464.53
2023-05-05T17:29:14.286Z,100465.00
2023-05-05T17:31:43.147Z,100468.84
2023-05-05T17:34:10.796Z,100463.72
2023-05-05T17:36:38.736Z,100459.56
2023-05-05T17:39:06.566Z,100465.25
2023-05-05T17:41:34.325Z,100467.50
2023-05-05T17:44:01.772Z,100467.25
2023-05-05T17:46:29.356Z,100465.34
2023-05-05T17:48:57.067Z,100465.66
2023-05-05T17:51:24.638Z,100470.81
2023-05-05T17:53:52.129Z,100474.25
2023-05-05T17:56:19.833Z,100485.66
2023-05-05T17:58:48.332Z,100480.56
2023-05-05T18:01:26.693Z,100481.19
2023-05-05T18:03:54.908Z,100482.03
2023-05-05T18:06:22.725Z,100481.44
2023-05-05T18:08:50.488Z,100488.94
2023-05-05T18:11:21.455Z,100480.84
2023-05-05T18:13:49.201Z,100478.16
2023-05-05T18:16:16.917Z,100481.19
2023-05-05T18:18:44.708Z,100481.88
2023-05-05T18:21:12.610Z,100483.88
2023-05-05T18:23:40.640Z,100486.13
2023-05-05T18:26:08.913Z,100493.72
2023-05-05T18:28:37.696Z,100482.97
2023-05-05T18:31:06.681Z,100485.28
2023-05-05T18:33:35.373Z,100490.94
2023-05-05T18:36:04.078Z,100499.69
2023-05-05T18:38:32.905Z,100502.91
2023-05-05T18:41:00.674Z,100497.66
2023-05-05T18:43:29.377Z,100504.03
2023-05-05T18:45:57.229Z,100501.31
2023-05-05T18:48:24.989Z,100501.63
2023-05-05T18:50:52.716Z,100508.38
2023-05-05T18:53:21.349Z,100506.75
2023-05-05T18:55:50.089Z,100510.47
2023-05-05T18:58:17.941Z,100506.78
2023-05-05T19:00:45.539Z,100499.13
2023-05-05T19:03:13.360Z,100512.97
2023-05-05T19:05:42.225Z,100515.19
2023-05-05T19:08:10.172Z,100509.16
2023-05-05T19:10:38.867Z,100500.56
2023-05-05T19:13:06.900Z,100508.75
2023-05-05T19:15:35.657Z,100508.88
2023-05-05T19:18:05.751Z,100512.06
2023-05-05T19:20:34.839Z,100509.47
2023-05-05T19:23:04.644Z,100514.00
2023-05-05T19:25:33.210Z,100517.28
2023-05-05T19:28:01.221Z,100514.06
2023-05-05T19:30:29.102Z,100519.78
2023-05-05T19:32:57.906Z,100522.44
2023-05-05T19:35:27.061Z,100526.00
2023-05-05T19:37:56.281Z,100522.00
2023-05-05T19:40:24.837Z,100526.50
2023-05-05T19:42:53.388Z,100525.91
2023-05-05T19:45:22.055Z,100521.03
2023-05-05T19:47:50.890Z,100529.78
2023-05-05T19:50:19.168Z,100519.38
2023-05-05T19:52:47.814Z,100520.66
2023-05-05T19:55:16.464Z,100522.59
2023-05-05T19:57:44.498Z,100521.97
2023-05-05T20:00:13.356Z,100521.13
2023-05-05T20:02:41.718Z,100516.00
2023-05-05T20:05:11.649Z,100523.44
2023-05-05T20:07:40.360Z,100519.06
2023-05-05T20:10:09.656Z,100519.78
2023-05-05T20:12:38.913Z,100521.97
2023-05-05T20:15:08.556Z,100516.47
2023-05-05T20:17:37.382Z,100516.91
2023-05-05T20:20:06.726Z,100518.88
2023-05-05T20:22:35.243Z,100515.34
2023-05-05T20:25:04.273Z,100518.94
2023-05-05T20:27:32.983Z,100516.38
2023-05-05T20:30:04.115Z,100512.06
2023-05-05T20:32:32.141Z,100516.03
2023-05-05T20:35:00.974Z,100515.16
2023-05-05T20:37:29.562Z,100509.28
2023-05-05T20:39:58.343Z,100509.94
2023-05-05T20:42:27.994Z,100517.38
2023-05-05T20:44:56.902Z,100507.03
2023-05-05T20:47:24.947Z,100511.88
2023-05-05T20:49:52.850Z,100513.75
2023-05-05T20:52:21.546Z,100509.41
2023-05-05T20:54:50.292Z,100512.09
2023-05-05T20:57:18.100Z,100513.81
2023-05-05T20:59:46.749Z,100514.56
2023-05-05T21:02:15.377Z,100511.13
2023-05-05T21:04:44.037Z,100516.59
2023-05-05T21:07:12.785Z,100516.63
2023-05-05T21:09:40.575Z,100516.84
2023-05-05T21:12:08.445Z,100521.66
2023-05-05T21:14:45.462Z,100506.44
2023-05-05T21:17:13.220Z,100506.50
2023-05-05T21:19:41.918Z,100514.63
2023-05-05T21:22:09.681Z,100509.25
2023-05-05T21:24:39.079Z,100513.47
2023-05-05T21:27:06.871Z,100513.44
2023-05-05T21:29:38.705Z,100514.13
2023-05-05T21:32:08.908Z,100509.03
2023-05-05T21:34:36.415Z,100502.91
2023-05-05T21:37:05.315Z,100503.06
2023-05-05T21:39:35.279Z,100502.34
2023-05-05T21:42:04.013Z,100494.59
2023-05-05T21:44:33.156Z,100498.59
2023-05-05T21:47:01.800Z,100493.31
2023-05-05T21:49:34.597Z,100497.47
2023-05-05T21:52:03.393Z,100494.91
2023-05-05T21:54:31.366Z,100499.38
2023-05-05T21:57:02.943Z,100497.00
2023-05-05T21:59:30.950Z,100495.19
2023-05-05T22:02:05.398Z,100496.22
2023-05-05T22:07:51.174Z,100484.94
2023-05-05T22:10:19.031Z,100482.31
2023-05-05T22:12:48.149Z,100488.28
2023-05-05T22:15:19.386Z,100481.03
2023-05-05T22:17:47.979Z,100485.41
2023-05-05T22:20:16.836Z,100471.47
2023-05-05T22:22:46.154Z,100472.13
2023-05-05T22:25:13.995Z,100474.97
2023-05-05T22:27:43.103Z,100472.31
2023-05-05T22:30:11.669Z,100467.38
2023-05-05T22:32:43.632Z,100469.22
2023-05-05T22:35:11.801Z,100461.03
2023-05-05T22:37:41.232Z,100473.63
2023-05-05T22:40:10.234Z,100469.41
2023-05-05T22:42:38.493Z,100470.06
2023-05-05T22:45:08.742Z,100461.97
2023-05-05T22:47:37.108Z,100469.56
2023-05-05T22:50:05.628Z,100474.91
2023-05-05T22:52:34.316Z,100467.72
2023-05-05T22:55:03.060Z,100470.28
2023-05-05T22:57:31.668Z,100469.50
2023-05-05T23:00:00.393Z,100484.22
2023-05-05T23:02:29.118Z,100471.38
2023-05-05T23:04:57.713Z,100477.00
2023-05-05T23:07:25.772Z,100482.97
2023-05-05T23:09:54.439Z,100477.63
2023-05-05T23:12:23.171Z,100471.63
2023-05-05T23:14:52.619Z,100481.16
2023-05-05T23:17:24.251Z,100478.66
2023-05-05T23:19:52.232Z,100477.63
2023-05-05T23:22:24.184Z,100477.72
2023-05-05T23:24:53.272Z,100482.41
2023-05-05T23:27:21.039Z,100481.63
2023-05-05T23:29:49.888Z,100475.81
2023-05-05T23:32:18.460Z,100476.78
2023-05-05T23:34:46.222Z,100486.44
2023-05-05T23:37:16.860Z,100477.97
2023-05-05T23:39:45.456Z,100484.88
2023-05-05T23:42:14.997Z,100474.50
2023-05-05T23:44:42.942Z,100480.56
2023-05-05T23:47:11.519Z,100484.25
2023-05-05T23:49:39.559Z,100483.25
2023-05-05T23:52:08.166Z,100480.69
2023-05-05T23:54:35.976Z,100476.56
2023-05-05T23:57:04.522Z,100478.25
2023-05-05T23:59:32.318Z,100484.47
